Time;durP1;ratioP1;P1;durP2;ratioP2;P2;SDS_P1;SDS_P2;PMS_P1;PMS_P2;Temp;Humidity;BMP_temperature;BMP_pressure;BME280_temperature;BME280_humidity;BME280_pressure;Samples;Min_cycle;Max_cycle;Signal;HPM_P1;HPM_P2
2023/01/02 00:00:08;;;;;;;;;;;;;;;4.35;100.00;101085.13;290506;34;3040;-79
2023/01/02 00:00:18;;;;;;;;;;;;;;;4.34;100.00;101086.84;290679;33;7323;-79
2023/01/02 00:00:28;;;;;;;;;;;;;;;4.34;100.00;101083.38;290257;33;6430;-79
2023/01/02 00:00:39;;;;;;;;;;;;;;;4.34;100.00;101086.84;292489;33;827;-79
2023/01/02 00:00:49;;;;;;;;;;;;;;;4.34;100.00;101080.78;286034;34;5510;-79
2023/01/02 00:00:59;;;;;;;;;;;;;;;4.33;100.00;101090.28;286023;34;5603;-79
2023/01/02 00:01:09;;;;;;;;;;;;;;;4.33;100.00;101085.13;284786;34;1243;-79
2023/01/02 00:01:20;;;;;;;;;;;;;;;4.34;100.00;101083.38;287001;34;5183;-79
2023/01/02 00:01:30;;;;;;;;;;;;;;;4.34;100.00;101079.06;284840;34;6984;-79
2023/01/02 00:01:40;;;;;;;;;;;;;;;4.34;100.00;101081.66;287602;34;1232;-79
2023/01/02 00:01:51;;;;;;;;;;;;;;;4.34;100.00;101086.84;280164;35;2113;-79
2023/01/02 00:03:24;;;;;;;;;;;;;;;4.32;100.00;101083.41;2497397;27;19932;-77
2023/01/02 00:03:34;;;;;;;;;;;;;;;4.33;100.00;101092.06;353934;27;1321;-77
2023/01/02 00:03:44;;;;;;;;;;;;;;;4.33;100.00;101095.47;350502;28;1351;-77
2023/01/02 00:03:57;;;;;;;;;;;;;;;4.31;100.00;101081.66;349174;28;1192;-77
2023/01/02 00:04:07;;;;;;;;;;;;;;;4.32;100.00;101083.41;351174;28;3145;-77
2023/01/02 00:04:18;;;;;;;;;;;;;;;4.32;100.00;101087.72;353364;28;1227;-77
2023/01/02 00:04:28;;;;;;;;;;;;;;;4.32;100.00;101086.00;350629;28;1239;-77
2023/01/02 00:04:38;;;;;;;;;;;;;;;4.33;100.00;101089.47;351076;28;3184;-77
2023/01/02 00:04:48;;;;;;;;;;;;;;;4.32;100.00;101088.59;348494;28;3339;-79
2023/01/02 00:04:59;;;;;;;;;;;;;;;4.32;100.00;101091.19;346499;28;1235;-78
2023/01/02 00:05:09;;;;;;;;;;;;;;;4.32;100.00;101088.59;346700;28;1223;-78
2023/01/02 00:05:19;;;;;;;;;;;;;;;4.33;100.00;101092.06;347744;28;3157;-80
2023/01/02 00:05:30;;;;;;;;;;;;;;;4.32;100.00;101088.59;349110;28;1214;-78
2023/01/02 00:05:40;;;;;;;;;;;;;;;4.31;100.00;101086.84;347749;28;1224;-78
2023/01/02 00:05:50;;;;;;;;;;;;;;;4.32;100.00;101092.91;349092;28;1225;-78
2023/01/02 00:06:01;;;;;;;;;;;;;;;4.32;100.00;101093.78;348060;28;2860;-78
2023/01/02 00:06:11;;;;;;;;;;;;;;;4.33;100.00;101097.22;349111;28;1311;-78
2023/01/02 00:06:22;;;;;;;;;;;;;;;4.31;100.00;101089.44;350698;28;772;-78
2023/01/02 00:06:37;;;;;;;;;;;;;;;4.32;100.00;101093.78;347728;28;1258;-78
2023/01/02 00:06:47;;;;;;;;;;;;;;;4.33;100.00;101092.06;348063;28;1259;-78
2023/01/02 00:06:57;;;;;;;;;;;;;;;4.32;100.00;101092.91;350373;28;1280;-78
2023/01/02 00:07:07;;;;;;;;;;;;;;;4.32;100.00;101091.19;349143;28;931;-78
2023/01/02 00:07:18;;;;;;;;;;;;;;;4.32;100.00;101092.91;347638;28;3264;-78
2023/01/02 00:07:28;;;;;;;;;;;;;;;4.32;100.00;101092.91;347720;28;1248;-78
2023/01/02 00:07:38;;;;;;;;;;;;;;;4.30;100.00;101090.31;350406;28;1269;-78
2023/01/02 00:07:48;;;;;;;;;;;;;;;4.31;100.00;101089.44;347026;28;2972;-78
2023/01/02 00:07:59;;;;;;;;;;;;;;;4.31;100.00;101089.44;348509;28;3221;-78
2023/01/02 00:08:09;;;;;;;;;;;;;;;4.31;100.00;101088.56;345085;28;1309;-79
2023/01/02 00:08:19;;;;;;;;;;;;;;;4.31;100.00;101092.03;347817;28;1263;-78
2023/01/02 00:08:31;;;;;;;;;;;;;;;4.31;100.00;101092.03;346641;28;3169;-79
2023/01/02 00:08:41;;;;;;;;;;;;;;;4.30;100.00;101084.25;349238;28;903;-78
2023/01/02 00:08:51;;;;;;;;;;;;;;;4.30;100.00;101095.47;348098;28;1184;-78
2023/01/02 00:09:02;;;;;;;;;;;;;;;4.30;100.00;101092.03;344863;28;2744;-78
2023/01/02 00:09:12;;;;;;;;;;;;;;;4.29;100.00;101088.56;348479;28;3328;-78
2023/01/02 00:09:24;;;;;;;;;;;;;;;4.29;100.00;101087.69;347627;28;1333;-78
2023/01/02 00:09:34;;;;;;;;;;;;;;;4.28;100.00;101092.00;349083;28;1354;-78
2023/01/02 00:09:44;;;;;;;;;;;;;;;4.28;100.00;101086.81;346537;28;3347;-78
2023/01/02 00:09:55;;;;;;;;;;;;;;;4.28;100.00;101092.00;349162;28;1230;-78
2023/01/02 00:10:05;;;;;;;;;;;;;;;4.28;100.00;101097.19;348690;28;1221;-78
2023/01/02 00:10:15;;;;;;;;;;;;;;;4.28;100.00;101092.00;349472;28;856;-78
2023/01/02 00:10:25;;;;;;;;;;;;;;;4.28;100.00;101094.59;346752;28;3113;-79
2023/01/02 00:10:35;;;;;;;;;;;;;;;4.28;100.00;101094.59;347935;28;832;-78
2023/01/02 00:10:46;;;;;;;;;;;;;;;4.28;100.00;101096.31;347173;28;1175;-77
2023/01/02 00:10:56;;;;;;;;;;;;;;;4.28;100.00;101091.16;347608;28;2728;-78
2023/01/02 00:11:06;;;;;;;;;;;;;;;4.26;100.00;101091.13;346594;28;3218;-78
2023/01/02 00:11:16;;;;;;;;;;;;;;;4.25;100.00;101097.16;346656;28;1421;-78
2023/01/02 00:11:27;;;;;;;;;;;;;;;4.24;100.00;101090.25;345161;28;844;-78
2023/01/02 00:11:37;;;;;;;;;;;;;;;4.24;100.00;101092.84;342062;28;3151;-78
2023/01/02 00:11:47;;;;;;;;;;;;;;;4.23;100.00;101093.69;340159;28;1226;-78
2023/01/02 00:11:57;;;;;;;;;;;;;;;4.22;100.00;101089.38;338483;29;1217;-78
2023/01/02 00:12:08;;;;;;;;;;;;;;;4.22;100.00;101091.97;334815;29;870;-78
2023/01/02 00:12:18;;;;;;;;;;;;;;;4.21;100.00;101089.34;330909;29;3486;-78
2023/01/02 00:12:28;;;;;;;;;;;;;;;4.20;100.00;101082.44;330618;29;1350;-78
2023/01/02 00:12:38;;;;;;;;;;;;;;;4.19;100.00;101089.34;332104;29;1368;-78
2023/01/02 00:12:49;;;;;;;;;;;;;;;4.20;100.00;101090.22;332160;29;1069;-78
2023/01/02 00:12:59;;;;;;;;;;;;;;;4.19;100.00;101084.16;333718;29;3180;-78
2023/01/02 00:13:09;;;;;;;;;;;;;;;4.19;100.00;101089.34;334573;29;1200;-78
2023/01/02 00:13:19;;;;;;;;;;;;;;;4.20;100.00;101093.66;331895;29;1491;-78
2023/01/02 00:13:30;;;;;;;;;;;;;;;4.19;100.00;101086.75;329411;29;3127;-77
2023/01/02 00:13:40;;;;;;;;;;;;;;;4.19;100.00;101091.94;329144;30;3388;-77
2023/01/02 00:13:50;;;;;;;;;;;;;;;4.19;100.00;101086.75;328213;29;2056;-77
2023/01/02 00:14:00;;;;;;;;;;;;;;;4.18;100.00;101089.31;330753;29;2155;-77
2023/01/02 00:14:11;;;;;;;;;;;;;;;4.17;100.00;101083.28;330278;29;3260;-78
2023/01/02 00:14:21;;;;;;;;;;;;;;;4.16;100.00;101089.31;330426;29;2123;-78
2023/01/02 00:14:31;;;;;;;;;;;;;;;4.17;100.00;101088.44;331504;29;1627;-78
2023/01/02 00:14:41;;;;;;;;;;;;;;;4.17;100.00;101083.28;330887;29;1401;-78
2023/01/02 00:14:51;;;;;;;;;;;;;;;4.17;100.00;101091.03;327510;29;3282;-78
2023/01/02 00:15:02;;;;;;;;;;;;;;;4.17;100.00;101093.63;327697;30;1343;-78
2023/01/02 00:15:12;;;;;;;;;;;;;;;4.18;100.00;101094.50;327165;30;1196;-78
2023/01/02 00:15:23;;;;;;;;;;;;;;;4.17;100.00;101097.94;323104;30;2886;-78
2023/01/02 00:15:33;;;;;;;;;;;;;;;4.17;100.00;101087.59;322985;30;2180;-78
2023/01/02 00:15:44;;;;;;;;;;;;;;;4.17;100.00;101087.59;324018;30;2361;-78
2023/01/02 00:15:54;;;;;;;;;;;;;;;4.17;100.00;101093.63;321236;30;812;-78
2023/01/02 00:16:04;;;;;;;;;;;;;;;4.17;100.00;101092.75;320772;30;3151;-78
2023/01/02 00:16:15;;;;;;;;;;;;;;;4.16;100.00;101089.31;319787;30;3133;-78
2023/01/02 00:16:25;;;;;;;;;;;;;;;4.16;100.00;101091.91;322456;30;808;-78
2023/01/02 00:16:35;;;;;;;;;;;;;;;4.17;100.00;101092.75;321515;30;2988;-78
2023/01/02 00:16:45;;;;;;;;;;;;;;;4.16;100.00;101091.91;320765;30;3392;-78
2023/01/02 00:16:55;;;;;;;;;;;;;;;4.16;100.00;101091.91;318844;31;1248;-78
2023/01/02 00:17:06;;;;;;;;;;;;;;;4.17;100.00;101092.75;318695;31;1561;-78
2023/01/02 00:17:17;;;;;;;;;;;;;;;4.16;100.00;101091.03;317643;30;3321;-78
2023/01/02 00:17:28;;;;;;;;;;;;;;;4.16;100.00;101093.63;318172;31;857;-77
2023/01/02 00:17:38;;;;;;;;;;;;;;;4.15;100.00;101092.75;313125;31;1348;-78
2023/01/02 00:17:48;;;;;;;;;;;;;;;4.15;100.00;101090.16;312284;31;2994;-78
2023/01/02 00:17:58;;;;;;;;;;;;;;;4.15;100.00;101095.34;314866;30;3593;-78
2023/01/02 00:18:08;;;;;;;;;;;;;;;4.16;100.00;101091.91;314865;31;1358;-78
2023/01/02 00:18:19;;;;;;;;;;;;;;;4.16;100.00;101097.09;309235;31;2965;-78
2023/01/02 00:18:29;;;;;;;;;;;;;;;4.17;100.00;101095.34;304334;32;3319;-78
2023/01/02 00:18:39;;;;;;;;;;;;;;;4.16;100.00;101094.50;305969;32;820;-78
2023/01/02 00:18:49;;;;;;;;;;;;;;;4.16;100.00;101093.63;308742;31;3554;-78
2023/01/02 00:19:00;;;;;;;;;;;;;;;4.16;100.00;101097.09;307678;31;2543;-78
2023/01/02 00:19:10;;;;;;;;;;;;;;;4.15;100.00;101100.53;303592;32;3213;-78
2023/01/02 00:19:20;;;;;;;;;;;;;;;4.15;100.00;101094.47;304530;32;2236;-78
2023/01/02 00:19:30;;;;;;;;;;;;;;;4.13;100.00;101091.88;303053;32;3041;-78
2023/01/02 00:19:41;;;;;;;;;;;;;;;4.14;100.00;101098.78;301813;32;1125;-78
2023/01/02 00:19:51;;;;;;;;;;;;;;;4.13;100.00;101097.06;300872;32;3244;-78
2023/01/02 00:20:01;;;;;;;;;;;;;;;4.15;100.00;101094.47;302347;32;3979;-78
2023/01/02 00:20:11;;;;;;;;;;;;;;;4.15;100.00;101099.66;302784;32;1336;-78
2023/01/02 00:20:21;;;;;;;;;;;;;;;4.14;100.00;101098.78;295837;33;5031;-78
2023/01/02 00:20:32;;;;;;;;;;;;;;;4.14;100.00;101097.91;297690;32;4222;-77
2023/01/02 00:20:42;;;;;;;;;;;;;;;4.13;100.00;101091.88;300692;32;1467;-77
2023/01/02 00:20:52;;;;;;;;;;;;;;;4.13;100.00;101091.88;299414;32;3925;-77
2023/01/02 00:21:03;;;;;;;;;;;;;;;4.13;100.00;101089.28;298467;32;4440;-77
2023/01/02 00:21:13;;;;;;;;;;;;;;;4.13;100.00;101097.06;297694;33;3511;-77
2023/01/02 00:21:23;;;;;;;;;;;;;;;4.13;100.00;101097.06;293078;33;2429;-77
2023/01/02 00:21:34;;;;;;;;;;;;;;;4.14;100.00;101092.75;291592;33;3558;-77
2023/01/02 00:21:44;;;;;;;;;;;;;;;4.14;100.00;101097.91;291078;33;4039;-77
2023/01/02 00:21:54;;;;;;;;;;;;;;;4.12;100.00;101095.31;295404;33;1298;-77
2023/01/02 00:22:04;;;;;;;;;;;;;;;4.12;100.00;101100.50;293236;33;4664;-77
2023/01/02 00:22:15;;;;;;;;;;;;;;;4.11;100.00;101090.13;291032;33;5919;-77
2023/01/02 00:22:25;;;;;;;;;;;;;;;4.11;100.00;101093.56;289239;34;3059;-77
2023/01/02 00:22:35;;;;;;;;;;;;;;;4.11;100.00;101093.56;289137;34;6616;-77
2023/01/02 00:22:45;;;;;;;;;;;;;;;4.11;100.00;101093.56;288411;34;6131;-77
2023/01/02 00:22:56;;;;;;;;;;;;;;;4.10;100.00;101094.44;287489;34;1238;-77
2023/01/02 00:23:06;;;;;;;;;;;;;;;4.10;100.00;101094.44;288090;34;5450;-77
2023/01/02 00:23:16;;;;;;;;;;;;;;;4.11;100.00;101087.53;287482;34;6441;-77
2023/01/02 00:23:26;;;;;;;;;;;;;;;4.09;100.00;101095.28;287587;34;946;-77
2023/01/02 00:23:37;;;;;;;;;;;;;;;4.12;100.00;101104.81;283591;34;5026;-77
2023/01/02 00:23:47;;;;;;;;;;;;;;;4.11;100.00;101098.75;283952;34;5553;-77
2023/01/02 00:23:57;;;;;;;;;;;;;;;4.11;100.00;101098.75;284826;34;1210;-77
2023/01/02 00:24:07;;;;;;;;;;;;;;;4.11;100.00;101103.06;284405;34;6659;-77
2023/01/02 00:24:18;;;;;;;;;;;;;;;4.10;100.00;101097.03;280109;34;7809;-77
2023/01/02 00:24:28;;;;;;;;;;;;;;;4.10;100.00;101097.03;279171;35;4720;-77
2023/01/02 00:24:38;;;;;;;;;;;;;;;4.09;100.00;101097.88;275887;35;1242;-77
2023/01/02 00:24:48;;;;;;;;;;;;;;;4.09;100.00;101095.28;275432;35;10084;-77
2023/01/02 00:24:59;;;;;;;;;;;;;;;4.09;100.00;101092.69;274297;35;9813;-77
2023/01/02 00:25:09;;;;;;;;;;;;;;;4.08;100.00;101100.44;275996;35;824;-77
2023/01/02 00:26:51;;;;;;;;;;;;;;;4.07;100.00;101104.75;2501946;27;19933;-77
2023/01/02 00:27:01;;;;;;;;;;;;;;;4.07;100.00;101096.13;354688;27;1320;-77
2023/01/02 00:27:11;;;;;;;;;;;;;;;4.06;100.00;101097.84;352082;28;1217;-77
2023/01/02 00:27:22;;;;;;;;;;;;;;;4.06;100.00;101095.25;349160;28;1229;-77
2023/01/02 00:27:32;;;;;;;;;;;;;;;4.07;100.00;101093.53;348042;28;3229;-77
2023/01/02 00:27:42;;;;;;;;;;;;;;;4.07;100.00;101102.16;350496;28;737;-77
2023/01/02 00:27:53;;;;;;;;;;;;;;;4.07;100.00;101098.72;350583;28;1357;-77
2023/01/02 00:28:03;;;;;;;;;;;;;;;4.06;100.00;101103.03;350544;28;1229;-77
2023/01/02 00:28:14;;;;;;;;;;;;;;;4.07;100.00;101104.75;348446;28;3220;-76
2023/01/02 00:28:24;;;;;;;;;;;;;;;4.07;100.00;101101.31;350658;28;1053;-77
2023/01/02 00:28:35;;;;;;;;;;;;;;;4.06;100.00;101094.38;350540;28;1338;-77
2023/01/02 00:28:45;;;;;;;;;;;;;;;4.07;100.00;101099.59;351984;28;1380;-77
2023/01/02 00:28:55;;;;;;;;;;;;;;;4.07;100.00;101103.91;351064;28;3131;-79
2023/01/02 00:29:05;;;;;;;;;;;;;;;4.07;100.00;101097.00;350529;28;1321;-79
2023/01/02 00:29:16;;;;;;;;;;;;;;;4.07;100.00;101106.47;349246;28;1092;-79
2023/01/02 00:29:26;;;;;;;;;;;;;;;4.06;100.00;101105.63;349276;28;1226;-77
2023/01/02 00:29:36;;;;;;;;;;;;;;;4.07;100.00;101101.31;350840;28;3090;-77
2023/01/02 00:29:46;;;;;;;;;;;;;;;4.04;100.00;101099.56;353356;28;1041;-77
2023/01/02 00:29:57;;;;;;;;;;;;;;;4.05;100.00;101103.88;350765;28;938;-77
2023/01/02 00:30:07;;;;;;;;;;;;;;;4.04;100.00;101102.13;352823;28;2835;-77
2023/01/02 00:30:17;;;;;;;;;;;;;;;4.05;100.00;101108.19;347030;28;3967;-77
2023/01/02 00:30:27;;;;;;;;;;;;;;;4.05;100.00;101098.69;348743;28;1223;-78
2023/01/02 00:30:38;;;;;;;;;;;;;;;4.04;100.00;101102.13;346829;28;1328;-78
2023/01/02 00:30:48;;;;;;;;;;;;;;;4.04;100.00;101103.88;346355;28;3098;-78
2023/01/02 00:31:08;;;;;;;;;;;;;;;4.04;100.00;101104.72;346892;28;1328;-77
2023/01/02 00:31:18;;;;;;;;;;;;;;;4.03;100.00;101103.00;347589;28;1414;-77
2023/01/02 00:31:28;;;;;;;;;;;;;;;4.04;100.00;101111.63;344478;28;3249;-77
2023/01/02 00:31:38;;;;;;;;;;;;;;;4.04;100.00;101099.56;346451;28;1207;-77
2023/01/02 00:31:49;;;;;;;;;;;;;;;4.04;100.00;101107.31;346438;28;1242;-77
2023/01/02 00:31:59;;;;;;;;;;;;;;;4.03;100.00;101105.59;343203;28;2968;-77
2023/01/02 00:32:09;;;;;;;;;;;;;;;4.04;100.00;101096.09;344772;28;3430;-77
2023/01/02 00:32:19;;;;;;;;;;;;;;;4.04;100.00;101106.44;346351;28;1466;-77
2023/01/02 00:32:29;;;;;;;;;;;;;;;4.03;100.00;101097.81;342470;28;1177;-77
2023/01/02 00:32:40;;;;;;;;;;;;;;;4.03;100.00;101103.00;342455;28;3175;-77
2023/01/02 00:32:50;;;;;;;;;;;;;;;4.02;100.00;101098.66;342321;28;1327;-77
2023/01/02 00:33:00;;;;;;;;;;;;;;;4.03;100.00;101104.72;343051;28;1209;-77
2023/01/02 00:33:10;;;;;;;;;;;;;;;4.02;100.00;101101.25;339731;28;1384;-77
2023/01/02 00:33:21;;;;;;;;;;;;;;;4.01;100.00;101099.53;339904;28;2955;-77
2023/01/02 00:33:31;;;;;;;;;;;;;;;4.01;100.00;101107.28;343973;28;1304;-77
2023/01/02 00:33:42;;;;;;;;;;;;;;;4.00;100.00;101100.38;343759;28;1211;-78
2023/01/02 00:33:52;;;;;;;;;;;;;;;4.00;100.00;101102.97;340518;28;1454;-78
2023/01/02 00:34:02;;;;;;;;;;;;;;;4.00;100.00;101100.38;338381;28;3176;-77
2023/01/02 00:34:13;;;;;;;;;;;;;;;3.99;100.00;101103.81;343443;28;903;-77
2023/01/02 00:34:23;;;;;;;;;;;;;;;4.00;100.00;101108.16;343754;28;1378;-77
2023/01/02 00:34:33;;;;;;;;;;;;;;;3.99;100.00;101106.41;344563;28;2981;-77
2023/01/02 00:34:43;;;;;;;;;;;;;;;3.99;100.00;101098.63;343019;28;3616;-77
2023/01/02 00:34:54;;;;;;;;;;;;;;;3.98;100.00;101102.94;341178;29;1225;-77
2023/01/02 00:35:04;;;;;;;;;;;;;;;3.98;100.00;101102.06;339510;29;1549;-77
2023/01/02 00:35:14;;;;;;;;;;;;;;;3.98;100.00;101102.06;337021;29;3214;-78
2023/01/02 00:35:24;;;;;;;;;;;;;;;3.98;100.00;101097.75;337168;29;1243;-78
2023/01/02 00:35:35;;;;;;;;;;;;;;;3.97;100.00;101106.38;333257;29;1334;-78
2023/01/02 00:35:46;;;;;;;;;;;;;;;3.97;100.00;101101.22;336518;29;3122;-77
2023/01/02 00:35:56;;;;;;;;;;;;;;;3.97;100.00;101110.69;338028;29;3368;-77
2023/01/02 00:36:07;;;;;;;;;;;;;;;3.96;100.00;101099.47;338656;29;889;-78
2023/01/02 00:36:17;;;;;;;;;;;;;;;3.96;100.00;101111.56;336865;29;1294;-78
2023/01/02 00:36:27;;;;;;;;;;;;;;;3.95;100.00;101107.22;336316;29;1320;-78
2023/01/02 00:36:37;;;;;;;;;;;;;;;3.96;100.00;101108.97;333272;29;871;-78
2023/01/02 00:36:48;;;;;;;;;;;;;;;3.95;100.00;101108.09;338411;29;1960;-78
2023/01/02 00:36:58;;;;;;;;;;;;;;;3.94;100.00;101105.50;337506;29;2182;-78
2023/01/02 00:37:08;;;;;;;;;;;;;;;3.92;100.00;101108.06;333143;29;1325;-78
2023/01/02 00:37:18;;;;;;;;;;;;;;;3.90;100.00;101104.59;330555;29;2174;-78
2023/01/02 00:37:29;;;;;;;;;;;;;;;3.89;100.00;101102.00;332231;29;1417;-78
2023/01/02 00:37:39;;;;;;;;;;;;;;;3.89;100.00;101112.38;334475;29;803;-78
2023/01/02 00:37:50;;;;;;;;;;;;;;;3.90;100.00;101108.94;333778;29;1982;-77
2023/01/02 00:38:00;;;;;;;;;;;;;;;3.90;100.00;101109.78;329182;30;1561;-77
2023/01/02 00:38:10;;;;;;;;;;;;;;;3.90;100.00;101111.53;329335;29;1268;-77
2023/01/02 00:38:21;;;;;;;;;;;;;;;3.89;100.00;101108.06;330551;29;1468;-77
2023/01/02 00:38:31;;;;;;;;;;;;;;;3.89;100.00;101107.19;330933;29;1621;-77
2023/01/02 00:38:41;;;;;;;;;;;;;;;3.89;100.00;101102.00;329200;29;2100;-77
2023/01/02 00:38:53;;;;;;;;;;;;;;;3.89;100.00;101102.00;328063;30;843;-77
2023/01/02 00:39:03;;;;;;;;;;;;;;;3.88;100.00;101108.03;330047;29;2226;-77
2023/01/02 00:39:13;;;;;;;;;;;;;;;3.89;100.00;101117.56;328006;30;2508;-77
2023/01/02 00:39:23;;;;;;;;;;;;;;;3.90;100.00;101108.94;325620;30;1369;-77
2023/01/02 00:39:34;;;;;;;;;;;;;;;3.88;100.00;101100.28;328103;29;2573;-77
2023/01/02 00:39:44;;;;;;;;;;;;;;;3.89;100.00;101102.88;325996;30;1654;-77
2023/01/02 00:39:54;;;;;;;;;;;;;;;3.90;100.00;101108.94;326757;30;1366;-77
2023/01/02 00:40:05;;;;;;;;;;;;;;;3.89;100.00;101102.00;326383;30;2438;-77
2023/01/02 00:40:15;;;;;;;;;;;;;;;3.90;100.00;101103.75;326193;30;1917;-77
2023/01/02 00:40:25;;;;;;;;;;;;;;;3.90;100.00;101106.34;324225;30;1664;-77
2023/01/02 00:40:35;;;;;;;;;;;;;;;3.88;100.00;101106.31;325603;30;868;-77
2023/01/02 00:40:45;;;;;;;;;;;;;;;3.89;100.00;101112.38;324019;30;2188;-77
2023/01/02 00:40:56;;;;;;;;;;;;;;;3.89;100.00;101107.19;322890;30;2374;-77
2023/01/02 00:41:06;;;;;;;;;;;;;;;3.88;100.00;101108.03;322035;30;1195;-77
2023/01/02 00:41:16;;;;;;;;;;;;;;;3.87;100.00;101109.78;320662;30;2812;-77
2023/01/02 00:41:26;;;;;;;;;;;;;;;3.87;100.00;101108.91;321977;30;3343;-77
2023/01/02 00:41:37;;;;;;;;;;;;;;;3.87;100.00;101108.91;323275;30;1357;-77
2023/01/02 00:41:47;;;;;;;;;;;;;;;3.88;100.00;101105.47;326253;30;3268;-77
2023/01/02 00:41:57;;;;;;;;;;;;;;;3.88;100.00;101108.03;325165;30;2506;-77
2023/01/02 00:42:07;;;;;;;;;;;;;;;3.87;100.00;101109.78;325503;30;1360;-77
2023/01/02 00:42:18;;;;;;;;;;;;;;;3.88;100.00;101110.63;322826;30;2784;-77
2023/01/02 00:42:28;;;;;;;;;;;;;;;3.88;100.00;101110.63;323997;30;2458;-77
2023/01/02 00:42:39;;;;;;;;;;;;;;;3.88;100.00;101108.03;325697;30;851;-77
2023/01/02 00:42:49;;;;;;;;;;;;;;;3.88;100.00;101111.50;319491;30;2476;-77
2023/01/02 00:42:59;;;;;;;;;;;;;;;3.88;100.00;101105.47;320866;30;2936;-77
2023/01/02 00:43:09;;;;;;;;;;;;;;;3.89;100.00;101107.19;320863;30;1213;-77
2023/01/02 00:43:20;;;;;;;;;;;;;;;3.90;100.00;101107.19;320206;30;3279;-77
2023/01/02 00:43:30;;;;;;;;;;;;;;;3.90;100.00;101114.09;320080;30;4060;-77
2023/01/02 00:43:42;;;;;;;;;;;;;;;3.90;100.00;101108.94;316006;31;4724;-77
2023/01/02 00:43:52;;;;;;;;;;;;;;;3.89;100.00;101108.06;310800;31;842;-77
2023/01/02 00:44:02;;;;;;;;;;;;;;;3.88;100.00;101103.75;313483;31;5452;-77
2023/01/02 00:44:12;;;;;;;;;;;;;;;3.89;100.00;101113.25;314061;31;3935;-77
2023/01/02 00:44:23;;;;;;;;;;;;;;;3.90;100.00;101116.69;312901;31;1228;-77
2023/01/02 00:44:33;;;;;;;;;;;;;;;3.90;100.00;101108.94;308368;31;4141;-77
2023/01/02 00:44:43;;;;;;;;;;;;;;;3.90;100.00;101111.53;308810;31;3417;-77
2023/01/02 00:44:53;;;;;;;;;;;;;;;3.87;100.00;101111.50;310897;31;3269;-77
2023/01/02 00:45:04;;;;;;;;;;;;;;;3.85;100.00;101110.59;305540;31;3219;-77
2023/01/02 00:45:14;;;;;;;;;;;;;;;3.86;100.00;101108.03;303952;32;4008;-77
2023/01/02 00:45:24;;;;;;;;;;;;;;;3.85;100.00;101105.41;303186;32;1984;-77
2023/01/02 00:45:35;;;;;;;;;;;;;;;3.84;100.00;101108.88;303145;32;5171;-77
2023/01/02 00:45:47;;;;;;;;;;;;;;;3.83;100.00;101104.53;299731;32;6700;-77
2023/01/02 00:45:57;;;;;;;;;;;;;;;3.83;100.00;101107.13;293426;32;6728;-77
2023/01/02 00:46:08;;;;;;;;;;;;;;;3.82;100.00;101113.16;291705;33;3244;-77
2023/01/02 00:46:18;;;;;;;;;;;;;;;3.82;100.00;101107.97;291108;33;7001;-77
2023/01/02 00:46:28;;;;;;;;;;;;;;;3.82;100.00;101110.56;288942;34;5797;-78
2023/01/02 00:46:38;;;;;;;;;;;;;;;3.81;100.00;101108.81;286399;34;3584;-79
2023/01/02 00:46:48;;;;;;;;;;;;;;;3.80;100.00;101104.50;283279;34;6074;-78
2023/01/02 00:46:59;;;;;;;;;;;;;;;3.81;100.00;101108.81;280942;34;6998;-78
2023/01/02 00:47:09;;;;;;;;;;;;;;;3.82;100.00;101110.56;282308;35;3398;-78
2023/01/02 00:47:19;;;;;;;;;;;;;;;3.82;100.00;101111.44;281006;35;5259;-78
2023/01/02 00:47:29;;;;;;;;;;;;;;;3.83;100.00;101109.72;282209;34;6682;-78
2023/01/02 00:47:40;;;;;;;;;;;;;;;3.85;100.00;101105.41;283227;34;3558;-78
2023/01/02 00:47:50;;;;;;;;;;;;;;;3.84;100.00;101107.16;286187;34;1375;-78
2023/01/02 00:48:04;;;;;;;;;;;;;;;3.83;100.00;101108.00;279047;34;9226;-78
2023/01/02 00:49:38;;;;;;;;;;;;;;;3.82;100.00;101105.38;2496494;27;19937;-77
2023/01/02 00:49:48;;;;;;;;;;;;;;;3.82;100.00;101102.81;353432;28;1314;-77
2023/01/02 00:49:59;;;;;;;;;;;;;;;3.82;100.00;101108.84;350300;28;3378;-78
2023/01/02 00:50:09;;;;;;;;;;;;;;;3.83;100.00;101108.00;350420;28;3203;-78
2023/01/02 00:50:19;;;;;;;;;;;;;;;3.83;100.00;101107.13;349826;28;1813;-77
2023/01/02 00:50:29;;;;;;;;;;;;;;;3.84;100.00;101103.69;349179;28;1969;-78
2023/01/02 00:50:40;;;;;;;;;;;;;;;3.83;100.00;101107.13;349007;28;3806;-78
2023/01/02 00:50:50;;;;;;;;;;;;;;;3.83;100.00;101108.00;350642;28;1279;-78
2023/01/02 00:51:00;;;;;;;;;;;;;;;3.82;100.00;101107.97;349488;28;3842;-78
2023/01/02 00:51:10;;;;;;;;;;;;;;;3.82;100.00;101105.38;351197;28;3155;-77
2023/01/02 00:51:20;;;;;;;;;;;;;;;3.82;100.00;101115.75;350490;28;1380;-77
2023/01/02 00:51:31;;;;;;;;;;;;;;;3.81;100.00;101104.53;348808;28;1840;-77
2023/01/02 00:51:41;;;;;;;;;;;;;;;3.82;100.00;101102.81;349884;28;3009;-77
2023/01/02 00:51:51;;;;;;;;;;;;;;;3.82;100.00;101106.25;348827;28;2619;-77
2023/01/02 00:52:01;;;;;;;;;;;;;;;3.82;100.00;101100.22;348087;28;3282;-78
2023/01/02 00:52:12;;;;;;;;;;;;;;;3.82;100.00;101103.66;350723;28;1057;-78
2023/01/02 00:52:22;;;;;;;;;;;;;;;3.83;100.00;101107.13;347839;28;1227;-78
2023/01/02 00:52:32;;;;;;;;;;;;;;;3.80;100.00;101104.50;348076;28;3090;-78
2023/01/02 00:52:42;;;;;;;;;;;;;;;3.81;100.00;101109.69;350399;28;3474;-78
2023/01/02 00:52:52;;;;;;;;;;;;;;;3.81;100.00;101114.00;350027;28;1358;-78
2023/01/02 00:53:03;;;;;;;;;;;;;;;3.80;100.00;101107.09;344242;28;1205;-78
2023/01/02 00:53:13;;;;;;;;;;;;;;;3.80;100.00;101101.91;344602;28;3121;-78
2023/01/02 00:53:23;;;;;;;;;;;;;;;3.81;100.00;101108.81;347518;28;3579;-78
2023/01/02 00:53:33;;;;;;;;;;;;;;;3.80;100.00;101107.09;347334;28;1786;-78
2023/01/02 00:53:43;;;;;;;;;;;;;;;3.79;100.00;101101.03;347999;28;1244;-78
2023/01/02 00:53:54;;;;;;;;;;;;;;;3.80;100.00;101105.38;348377;28;2867;-78
2023/01/02 00:54:04;;;;;;;;;;;;;;;3.80;100.00;101101.91;349372;28;3577;-78
2023/01/02 00:54:14;;;;;;;;;;;;;;;3.82;100.00;101107.97;347775;28;1215;-78
2023/01/02 00:54:24;;;;;;;;;;;;;;;3.82;100.00;101100.22;347918;28;1216;-78
2023/01/02 00:54:35;;;;;;;;;;;;;;;3.81;100.00;101104.53;348115;28;3200;-78
2023/01/02 00:54:45;;;;;;;;;;;;;;;3.82;100.00;101105.38;347883;28;1063;-78
2023/01/02 00:54:55;;;;;;;;;;;;;;;3.82;100.00;101105.38;346507;28;1240;-78
2023/01/02 00:55:05;;;;;;;;;;;;;;;3.82;100.00;101107.97;348661;28;1207;-78
2023/01/02 00:55:16;;;;;;;;;;;;;;;3.82;100.00;101106.25;347913;28;3191;-78
2023/01/02 00:55:26;;;;;;;;;;;;;;;3.82;100.00;101108.84;349201;28;1219;-78
2023/01/02 00:55:36;;;;;;;;;;;;;;;3.82;100.00;101101.09;349050;28;1179;-78
2023/01/02 00:55:46;;;;;;;;;;;;;;;3.82;100.00;101107.97;348446;28;3077;-78
2023/01/02 00:55:57;;;;;;;;;;;;;;;3.82;100.00;101100.22;348993;28;3527;-78
2023/01/02 00:56:07;;;;;;;;;;;;;;;3.82;100.00;101107.97;348941;28;1244;-78
2023/01/02 00:56:17;;;;;;;;;;;;;;;3.82;100.00;101103.66;350444;28;1207;-78
2023/01/02 00:56:27;;;;;;;;;;;;;;;3.82;100.00;101098.50;350067;28;3166;-78
2023/01/02 00:56:37;;;;;;;;;;;;;;;3.81;100.00;101099.34;351189;28;3505;-78
2023/01/02 00:56:48;;;;;;;;;;;;;;;3.83;100.00;101101.94;353434;27;1211;-78
2023/01/02 00:56:58;;;;;;;;;;;;;;;3.83;100.00;101108.00;350629;28;1197;-78
2023/01/02 00:57:08;;;;;;;;;;;;;;;3.82;100.00;101100.22;347657;28;3155;-78
2023/01/02 00:57:18;;;;;;;;;;;;;;;3.83;100.00;101099.34;349509;28;1216;-78
2023/01/02 00:57:29;;;;;;;;;;;;;;;3.83;100.00;101096.78;346187;28;1354;-78
2023/01/02 00:57:39;;;;;;;;;;;;;;;3.85;100.00;101102.84;345113;28;1204;-78
2023/01/02 00:57:49;;;;;;;;;;;;;;;3.85;100.00;101100.25;346746;28;3198;-78
2023/01/02 00:57:59;;;;;;;;;;;;;;;3.85;100.00;101105.41;347859;28;1374;-78
2023/01/02 00:58:10;;;;;;;;;;;;;;;3.82;100.00;101105.38;346436;28;1028;-78
2023/01/02 00:58:20;;;;;;;;;;;;;;;3.81;100.00;101103.66;346811;28;2617;-78
2023/01/02 00:58:30;;;;;;;;;;;;;;;3.77;100.00;101104.47;342817;28;3461;-78
2023/01/02 00:58:40;;;;;;;;;;;;;;;3.75;100.00;101099.28;342256;28;1105;-78
2023/01/02 00:58:51;;;;;;;;;;;;;;;3.74;100.00;101099.25;340852;29;1222;-78
2023/01/02 00:59:01;;;;;;;;;;;;;;;3.73;100.00;101100.09;339880;28;3218;-78